Airport View

Enter AWOS ICAO identifier for current METAR.

ex. KFNL

KPDK 192353Z 00000KT 10SM CLR 18/15 A3020 RMK AO2 SLP223 T01780150 10239 20172 53006

20 Oct 2020 00:38

Phone: 770-457-1691

Other Area AWOS: KMGE - KFTY - KATL - KRYY

TAF KPDK 192339Z 2000/2024 09003KT P6SM FEW250 FM200800 09004KT P6SM SCT030 FM201500 08007KT P6SM SCT250